Time;durP1;ratioP1;P1;durP2;ratioP2;P2;SDS_P1;SDS_P2;PMS_P1;PMS_P2;Temp;Humidity;BMP_temperature;BMP_pressure;BME280_temperature;BME280_humidity;BME280_pressure;Samples;Min_cycle;Max_cycle;Signal;HPM_P1;HPM_P2
2022/03/14 00:00:47;;;;;;;2.75;0.30;;;30.10;93.30;;;;;;4934654;29;20028;-75
2022/03/14 00:03:15;;;;;;;0.20;0.20;;;30.10;93.60;;;;;;4931905;29;20035;-74
2022/03/14 00:05:43;;;;;;;0.68;0.20;;;30.50;93.00;;;;;;4925188;28;20070;-73
2022/03/14 00:08:11;;;;;;;1.55;0.52;;;30.80;92.80;;;;;;4928605;28;20032;-72
2022/03/14 00:10:38;;;;;;;1.30;0.82;;;30.80;92.70;;;;;;4926254;29;20032;-73
2022/03/14 00:13:07;;;;;;;1.65;0.20;;;30.60;92.30;;;;;;4925596;29;20379;-75
2022/03/14 00:15:34;;;;;;;0.43;0.28;;;30.90;92.50;;;;;;4922095;29;20110;-72
2022/03/14 00:18:03;;;;;;;2.10;0.40;;;31.60;92.10;;;;;;4925450;29;20471;-72
2022/03/14 00:20:31;;;;;;;0.90;0.15;;;32.10;91.90;;;;;;4925030;29;20131;-74
2022/03/14 00:22:59;;;;;;;1.65;0.20;;;32.10;92.20;;;;;;4932438;29;20043;-73
2022/03/14 00:25:28;;;;;;;0.65;0.35;;;32.40;90.60;;;;;;4932725;29;20490;-73
2022/03/14 00:27:55;;;;;;;1.45;0.55;;;32.70;90.60;;;;;;4931288;29;20052;-73
2022/03/14 00:30:23;;;;;;;0.70;0.15;;;32.40;90.90;;;;;;4932194;29;20035;-74
2022/03/14 00:32:50;;;;;;;0.85;0.35;;;32.60;90.60;;;;;;4931873;29;20379;-73
2022/03/14 00:35:18;;;;;;;2.97;0.75;;;33.00;90.00;;;;;;4931980;29;20063;-72
2022/03/14 00:37:45;;;;;;;0.98;0.20;;;33.10;89.00;;;;;;4930546;29;20035;-72
2022/03/14 00:40:14;;;;;;;1.30;0.20;;;33.30;88.60;;;;;;4925530;29;20039;-74
2022/03/14 00:42:43;;;;;;;1.75;0.40;;;33.40;90.00;;;;;;4918795;29;20043;-73
2022/03/14 00:45:11;;;;;;;0.13;0.03;;;33.30;88.40;;;;;;4924633;29;20437;-71
2022/03/14 00:47:39;;;;;;;1.00;0.20;;;32.80;87.30;;;;;;4926246;29;20042;-72
2022/03/14 00:50:07;;;;;;;0.52;0.10;;;31.40;88.70;;;;;;4924786;28;20059;-71
2022/03/14 00:52:34;;;;;;;1.13;0.20;;;30.10;90.60;;;;;;4922753;29;20028;-71
2022/03/14 00:55:02;;;;;;;0.70;0.13;;;30.20;91.40;;;;;;4922538;29;20027;-71
2022/03/14 00:57:29;;;;;;;1.33;0.35;;;30.70;90.70;;;;;;4924367;29;20082;-72
2022/03/14 00:59:57;;;;;;;0.30;0.13;;;31.30;90.20;;;;;;4926505;28;20036;-71
2022/03/14 01:02:24;;;;;;;0.40;0.10;;;31.90;89.60;;;;;;4922268;29;20051;-72
2022/03/14 01:04:52;;;;;;;1.85;0.20;;;32.20;89.70;;;;;;4930454;29;20034;-71
2022/03/14 01:07:19;;;;;;;3.83;0.30;;;32.30;90.20;;;;;;4925909;29;20043;-70
2022/03/14 01:09:46;;;;;;;0.90;0.40;;;32.50;87.10;;;;;;4922966;29;20110;-71
2022/03/14 01:12:14;;;;;;;0.63;0.20;;;32.50;87.50;;;;;;4926600;29;20020;-74
2022/03/14 01:14:43;;;;;;;0.90;0.55;;;32.70;88.80;;;;;;4931228;28;20032;-71
2022/03/14 01:17:11;;;;;;;2.65;0.73;;;32.70;88.60;;;;;;4931751;28;20035;-72
2022/03/14 01:19:38;;;;;;;1.75;0.68;;;31.90;88.60;;;;;;4928114;29;20043;-74
2022/03/14 01:22:10;;;;;;;1.05;0.30;;;30.80;90.70;;;;;;4930187;29;20039;-72
2022/03/14 01:24:42;;;;;;;0.47;0.20;;;30.00;91.10;;;;;;4927957;29;20031;-70
2022/03/14 01:27:10;;;;;;;0.80;0.28;;;29.70;91.30;;;;;;4933247;29;20131;-71
2022/03/14 01:29:38;;;;;;;1.10;0.22;;;30.30;90.70;;;;;;4931468;29;20553;-71
2022/03/14 01:32:07;;;;;;;1.17;0.20;;;31.30;90.20;;;;;;4933130;29;20039;-73
2022/03/14 01:34:34;;;;;;;2.05;0.40;;;32.10;88.20;;;;;;4928253;29;20060;-71
2022/03/14 01:37:02;;;;;;;2.08;0.32;;;32.50;87.20;;;;;;4924605;29;20596;-71
2022/03/14 01:39:30;;;;;;;2.15;0.20;;;32.80;89.50;;;;;;4927702;29;20062;-71
2022/03/14 01:41:57;;;;;;;1.58;0.20;;;32.80;87.50;;;;;;4935955;28;20029;-74
2022/03/14 01:44:25;;;;;;;2.40;0.25;;;32.80;87.20;;;;;;4934541;29;20035;-73
2022/03/14 01:46:53;;;;;;;0.70;0.20;;;32.90;86.40;;;;;;4937970;29;20040;-73
2022/03/14 01:49:21;;;;;;;0.68;0.30;;;33.20;88.80;;;;;;4932618;29;20438;-75
2022/03/14 01:51:52;;;;;;;0.90;0.15;;;33.50;87.60;;;;;;4929492;28;20057;-76
2022/03/14 01:54:21;;;;;;;1.42;0.20;;;33.70;87.10;;;;;;4926383;29;20115;-74
2022/03/14 01:56:50;;;;;;;0.30;0.10;;;33.90;87.90;;;;;;4934702;29;20036;-72
2022/03/14 01:59:18;;;;;;;1.02;0.10;;;33.00;85.10;;;;;;4931791;29;20551;-74
2022/03/14 02:01:46;;;;;;;1.13;0.10;;;32.10;88.00;;;;;;4933351;29;20098;-74
2022/03/14 02:04:17;;;;;;;1.00;0.28;;;31.20;89.10;;;;;;4930973;29;20043;-77
2022/03/14 02:06:46;;;;;;;3.17;0.20;;;30.80;90.20;;;;;;4935835;29;20122;-72
2022/03/14 02:09:14;;;;;;;0.70;0.20;;;30.60;90.10;;;;;;4927248;29;20075;-76
2022/03/14 02:11:57;;;;;;;0.20;0.10;;;30.60;90.10;;;;;;4931129;29;20031;-76
2022/03/14 02:14:25;;;;;;;1.52;0.52;;;30.30;90.10;;;;;;4929710;28;20070;-79
2022/03/14 02:16:53;;;;;;;1.20;0.75;;;29.80;90.70;;;;;;4937123;29;20489;-79
2022/03/14 02:19:20;;;;;;;1.20;0.20;;;29.40;91.20;;;;;;4934288;29;20040;-78
2022/03/14 02:21:48;;;;;;;1.67;0.20;;;29.00;91.70;;;;;;4935028;29;20040;-75
2022/03/14 02:24:15;;;;;;;1.45;0.10;;;28.50;92.10;;;;;;4927787;29;20040;-73
2022/03/14 02:26:43;;;;;;;0.75;0.30;;;28.20;92.40;;;;;;4928015;29;20083;-78
2022/03/14 02:29:14;;;;;;;1.17;0.20;;;27.90;92.80;;;;;;4932181;28;20386;-75
2022/03/14 02:31:42;;;;;;;1.98;0.38;;;27.80;93.20;;;;;;4929294;29;20827;-73
2022/03/14 02:34:09;;;;;;;3.08;0.40;;;27.60;93.70;;;;;;4930813;29;20422;-73
2022/03/14 02:36:39;;;;;;;1.08;0.45;;;27.50;94.30;;;;;;4926431;29;20435;-80
2022/03/14 02:39:09;;;;;;;9.25;1.40;;;27.30;95.30;;;;;;4929208;29;20074;-74
2022/03/14 02:41:37;;;;;;;2.35;0.30;;;26.80;97.70;;;;;;4927030;29;20470;-76
2022/03/14 02:44:08;;;;;;;2.40;0.60;;;26.10;99.20;;;;;;4926043;29;20119;-74
2022/03/14 02:46:40;;;;;;;3.08;0.50;;;25.30;99.90;;;;;;4935290;28;20086;-75
2022/03/14 02:49:09;;;;;;;1.17;0.30;;;24.70;99.90;;;;;;4926789;29;20430;-76
2022/03/14 02:51:38;;;;;;;1.40;0.40;;;24.50;99.90;;;;;;4934765;29;20039;-75
2022/03/14 02:54:08;;;;;;;2.90;0.40;;;24.20;99.90;;;;;;4931814;29;20046;-74
2022/03/14 02:56:36;;;;;;;3.15;1.00;;;24.20;99.90;;;;;;4928779;29;20478;-74
2022/03/14 02:59:05;;;;;;;2.60;0.70;;;24.30;99.90;;;;;;4927841;29;20054;-76
2022/03/14 03:01:34;;;;;;;1.25;0.50;;;24.50;99.90;;;;;;4927824;29;20102;-72
2022/03/14 03:04:01;;;;;;;3.17;0.28;;;24.60;99.90;;;;;;4927425;29;20041;-74
2022/03/14 03:06:28;;;;;;;1.13;0.28;;;24.60;99.90;;;;;;4927477;29;20031;-73
2022/03/14 03:08:56;;;;;;;2.58;0.20;;;24.70;99.90;;;;;;4929133;29;20445;-74
2022/03/14 03:11:23;;;;;;;1.02;0.22;;;24.60;99.90;;;;;;4930320;29;20035;-74
2022/03/14 03:13:54;;;;;;;3.22;0.40;;;24.60;99.90;;;;;;4933971;29;20040;-75
2022/03/14 03:16:22;;;;;;;1.48;0.20;;;24.60;99.90;;;;;;4941319;29;20035;-72
2022/03/14 03:18:49;;;;;;;2.70;0.22;;;24.60;99.90;;;;;;4944012;29;20103;-74
2022/03/14 03:21:17;;;;;;;1.45;0.17;;;24.60;99.90;;;;;;4932529;29;20516;-72
2022/03/14 03:23:44;;;;;;;1.45;0.22;;;24.70;99.90;;;;;;4925118;29;20041;-74
2022/03/14 03:26:12;;;;;;;1.05;0.05;;;24.50;99.90;;;;;;4927816;29;21016;-72
2022/03/14 03:28:39;;;;;;;0.73;0.10;;;24.40;99.90;;;;;;4927441;29;20031;-72
2022/03/14 03:31:18;;;;;;;0.47;0.10;;;24.30;99.90;;;;;;4926936;29;20027;-73
2022/03/14 03:33:47;;;;;;;2.45;0.20;;;24.30;99.90;;;;;;4932681;29;20016;-75
2022/03/14 03:36:15;;;;;;;0.65;0.20;;;24.10;99.90;;;;;;4932941;29;20027;-75
2022/03/14 03:38:42;;;;;;;0.90;0.22;;;24.00;99.90;;;;;;4934103;29;20542;-71
2022/03/14 03:41:10;;;;;;;0.98;0.30;;;23.90;99.90;;;;;;4933662;29;20063;-72
2022/03/14 03:43:37;;;;;;;2.53;0.47;;;23.80;99.90;;;;;;4931757;29;20094;-71
2022/03/14 03:46:05;;;;;;;3.72;0.40;;;23.60;99.90;;;;;;4934130;29;20111;-71
2022/03/14 03:48:32;;;;;;;2.70;1.15;;;23.70;99.90;;;;;;4932912;29;20032;-74
2022/03/14 03:51:01;;;;;;;1.17;0.30;;;23.60;99.90;;;;;;4924461;29;20034;-73
2022/03/14 03:53:28;;;;;;;1.30;0.20;;;23.60;99.90;;;;;;4931825;29;20040;-72
2022/03/14 03:55:55;;;;;;;0.50;0.10;;;23.60;99.90;;;;;;4929332;29;20435;-71
2022/03/14 03:58:22;;;;;;;2.83;0.30;;;23.80;99.90;;;;;;4925352;29;20039;-73
2022/03/14 04:00:51;;;;;;;2.10;0.13;;;24.00;99.90;;;;;;4926036;29;20106;-74
2022/03/14 04:03:21;;;;;;;2.05;0.20;;;24.10;99.90;;;;;;4926763;29;20043;-75
2022/03/14 04:05:49;;;;;;;0.73;0.10;;;24.20;99.90;;;;;;4932867;29;20032;-75
2022/03/14 04:08:19;;;;;;;2.28;0.28;;;24.20;99.90;;;;;;4934239;29;20083;-76
2022/03/14 04:10:53;;;;;;;0.60;0.10;;;24.50;99.90;;;;;;4930999;28;20046;-74
2022/03/14 04:13:23;;;;;;;0.20;0.10;;;24.70;99.90;;;;;;4925362;29;20050;-72
2022/03/14 04:15:54;;;;;;;0.20;0.15;;;24.90;99.90;;;;;;4925840;29;20506;-73
2022/03/14 04:18:25;;;;;;;3.05;0.20;;;24.70;99.90;;;;;;4927616;28;20501;-75
2022/03/14 04:20:53;;;;;;;0.32;0.32;;;24.70;99.90;;;;;;4924290;29;20126;-72
2022/03/14 04:23:20;;;;;;;1.70;0.15;;;24.60;99.90;;;;;;4927422;29;20182;-72
2022/03/14 04:25:48;;;;;;;1.65;0.35;;;24.30;99.90;;;;;;4931800;29;20039;-72
2022/03/14 04:28:16;;;;;;;2.25;0.20;;;24.10;99.90;;;;;;4933083;29;20144;-70
2022/03/14 04:30:44;;;;;;;2.28;0.70;;;23.90;99.90;;;;;;4932079;29;20039;-70
2022/03/14 04:33:11;;;;;;;1.08;0.20;;;24.00;99.90;;;;;;4928026;29;20038;-71
2022/03/14 04:35:39;;;;;;;1.35;0.10;;;24.10;99.90;;;;;;4932862;28;20035;-75
2022/03/14 04:38:07;;;;;;;1.85;0.30;;;24.00;99.90;;;;;;4924049;29;20055;-73
2022/03/14 04:40:36;;;;;;;1.50;0.40;;;24.00;99.90;;;;;;4933834;29;20035;-73
2022/03/14 04:43:07;;;;;;;0.43;0.13;;;24.00;99.90;;;;;;4932999;29;20034;-71
2022/03/14 04:45:36;;;;;;;4.00;1.38;;;24.00;99.90;;;;;;4931474;29;20036;-74
2022/03/14 04:48:06;;;;;;;1.20;0.95;;;24.00;99.90;;;;;;4928107;29;20047;-74
2022/03/14 04:50:37;;;;;;;5.63;1.38;;;24.10;99.90;;;;;;4923826;29;20028;-73
2022/03/14 04:53:06;;;;;;;1.75;0.47;;;24.20;99.90;;;;;;4920769;29;20110;-74
2022/03/14 04:55:36;;;;;;;1.63;0.30;;;24.20;99.90;;;;;;4925010;28;20114;-74
2022/03/14 04:58:04;;;;;;;4.78;0.40;;;24.20;99.90;;;;;;4925554;29;20035;-70
2022/03/14 05:00:32;;;;;;;1.10;0.20;;;24.30;99.90;;;;;;4925661;29;20099;-73
2022/03/14 05:03:08;;;;;;;0.40;0.15;;;24.30;99.90;;;;;;4925246;29;20052;-72
2022/03/14 05:05:35;;;;;;;;;;;24.30;99.90;;;;;;4925661;29;20028;-73
2022/03/14 05:08:03;;;;;;;1.83;0.30;;;24.30;99.90;;;;;;4925917;28;19955;-73
2022/03/14 05:10:31;;;;;;;1.65;0.25;;;24.20;99.90;;;;;;4925237;29;20097;-72
2022/03/14 05:13:02;;;;;;;0.82;0.20;;;24.30;99.90;;;;;;4927308;28;20495;-74
2022/03/14 05:15:31;;;;;;;3.00;0.90;;;24.30;99.90;;;;;;4935972;29;20035;-72
2022/03/14 05:18:00;;;;;;;2.50;0.63;;;24.40;99.90;;;;;;4939374;29;20055;-72
2022/03/14 05:20:28;;;;;;;5.88;0.50;;;24.40;99.90;;;;;;4939146;29;20391;-72
2022/03/14 05:22:55;;;;;;;2.60;0.60;;;24.40;99.90;;;;;;4939074;29;20482;-74
2022/03/14 05:25:24;;;;;;;1.80;0.20;;;24.40;99.90;;;;;;4937915;28;20527;-73
2022/03/14 05:27:54;;;;;;;1.85;0.40;;;24.40;99.90;;;;;;4938327;29;20494;-74
2022/03/14 05:30:21;;;;;;;4.30;0.40;;;24.40;99.90;;;;;;4935432;29;20028;-74
2022/03/14 05:32:49;;;;;;;1.20;0.30;;;24.40;99.90;;;;;;4939576;29;20032;-74
2022/03/14 05:35:16;;;;;;;3.33;0.77;;;24.50;99.90;;;;;;4935041;29;20040;-72
2022/03/14 05:37:45;;;;;;;2.40;0.50;;;24.30;99.90;;;;;;4930987;29;20063;-74
2022/03/14 05:40:15;;;;;;;1.25;0.40;;;24.20;99.90;;;;;;4938254;29;20043;-73
2022/03/14 05:42:45;;;;;;;2.05;1.02;;;24.10;99.90;;;;;;4939300;29;20024;-76
2022/03/14 05:45:13;;;;;;;3.85;0.63;;;24.10;99.90;;;;;;4937658;29;20024;-74
2022/03/14 05:47:41;;;;;;;4.28;0.45;;;24.10;99.90;;;;;;4937554;28;20057;-74
2022/03/14 05:50:09;;;;;;;3.20;0.68;;;24.20;99.90;;;;;;4937075;29;20051;-74
2022/03/14 05:52:36;;;;;;;2.40;0.73;;;24.20;99.90;;;;;;4938313;29;20093;-73
2022/03/14 05:55:05;;;;;;;1.80;0.50;;;24.10;99.90;;;;;;4934230;28;20474;-73
2022/03/14 05:57:34;;;;;;;8.35;1.42;;;24.10;99.90;;;;;;4934174;29;20063;-73
2022/03/14 06:00:02;;;;;;;2.17;0.50;;;24.00;99.90;;;;;;4937036;29;20019;-75
2022/03/14 06:02:30;;;;;;;4.18;0.57;;;23.90;99.90;;;;;;4938454;29;20044;-75
2022/03/14 06:04:57;;;;;;;3.03;0.43;;;23.90;99.90;;;;;;4937111;29;20031;-73
2022/03/14 06:07:25;;;;;;;3.28;0.40;;;23.80;99.90;;;;;;4953425;28;20035;-74
2022/03/14 06:09:52;;;;;;;1.30;0.47;;;23.80;99.90;;;;;;4938343;29;20031;-72
2022/03/14 06:12:30;;;;;;;2.00;0.85;;;23.90;99.90;;;;;;4939309;29;20032;-73
2022/03/14 06:15:02;;;;;;;2.10;0.52;;;23.90;99.90;;;;;;4932552;29;20023;-71
2022/03/14 06:17:29;;;;;;;1.83;0.52;;;23.90;99.90;;;;;;4935091;28;20979;-72
2022/03/14 06:19:56;;;;;;;3.38;0.68;;;24.00;99.90;;;;;;4937159;29;20055;-72
2022/03/14 06:22:24;;;;;;;2.35;0.95;;;24.00;99.90;;;;;;4938779;29;20122;-73
2022/03/14 06:24:52;;;;;;;3.60;0.60;;;24.10;99.90;;;;;;4936275;29;20024;-72
2022/03/14 06:27:21;;;;;;;3.92;0.60;;;24.10;99.90;;;;;;4935460;29;20047;-74
2022/03/14 06:29:49;;;;;;;4.05;0.77;;;24.10;99.90;;;;;;4930501;29;20470;-73
2022/03/14 06:32:17;;;;;;;3.55;0.88;;;24.10;99.90;;;;;;4950635;29;20035;-74
2022/03/14 06:34:44;;;;;;;3.85;0.52;;;23.60;99.90;;;;;;4932107;29;20474;-73
2022/03/14 06:37:12;;;;;;;8.55;0.60;;;23.00;99.90;;;;;;4935356;29;20114;-75
2022/03/14 06:39:40;;;;;;;4.55;0.52;;;22.70;99.90;;;;;;4935752;28;20082;-72
2022/03/14 06:42:13;;;;;;;2.75;1.40;;;22.60;99.90;;;;;;4929759;29;20027;-73
2022/03/14 06:44:42;;;;;;;3.15;0.60;;;22.50;99.90;;;;;;4930750;29;20102;-73
2022/03/14 06:47:12;;;;;;;2.05;0.40;;;22.60;99.90;;;;;;4934981;29;20126;-74
2022/03/14 06:49:42;;;;;;;4.20;0.50;;;22.80;99.90;;;;;;4927351;29;20034;-71
2022/03/14 06:52:09;;;;;;;2.45;0.30;;;22.90;99.90;;;;;;4928363;29;20062;-74
2022/03/14 06:54:37;;;;;;;2.42;0.60;;;23.00;99.90;;;;;;4934017;29;20028;-72
2022/03/14 06:57:05;;;;;;;2.40;0.30;;;23.10;99.90;;;;;;4933990;29;20118;-72
2022/03/14 06:59:32;;;;;;;2.00;0.40;;;23.30;99.90;;;;;;4932706;29;20020;-75
2022/03/14 07:02:00;;;;;;;9.07;1.63;;;23.40;99.90;;;;;;4933074;29;20039;-72
2022/03/14 07:04:28;;;;;;;1.45;0.40;;;23.40;99.90;;;;;;4929657;29;20086;-74
2022/03/14 07:06:55;;;;;;;0.55;0.20;;;23.50;99.90;;;;;;4928153;29;20452;-71
2022/03/14 07:09:23;;;;;;;3.25;0.50;;;23.40;99.90;;;;;;4921903;29;20107;-74
2022/03/14 07:11:51;;;;;;;2.00;0.30;;;23.40;99.90;;;;;;4926793;29;20031;-71
2022/03/14 07:14:20;;;;;;;4.88;0.57;;;23.50;99.90;;;;;;4938771;29;20075;-71
2022/03/14 07:16:49;;;;;;;4.88;0.40;;;23.40;99.90;;;;;;4936552;29;20023;-73
2022/03/14 07:19:16;;;;;;;1.50;0.65;;;23.40;99.90;;;;;;4931419;29;20032;-73
2022/03/14 07:21:44;;;;;;;2.85;0.40;;;23.40;99.90;;;;;;4928529;28;20032;-74
2022/03/14 07:24:11;;;;;;;2.50;0.73;;;23.40;99.90;;;;;;4929953;28;20051;-72
2022/03/14 07:26:38;;;;;;;1.98;0.43;;;23.40;99.90;;;;;;4931297;29;20048;-72
2022/03/14 07:29:06;;;;;;;2.05;0.85;;;23.50;99.90;;;;;;4932963;28;20047;-71
2022/03/14 07:31:35;;;;;;;3.35;0.45;;;23.40;99.90;;;;;;4919449;29;20506;-73
2022/03/14 07:34:03;;;;;;;2.15;1.30;;;23.50;99.90;;;;;;4926427;29;20043;-73
2022/03/14 07:36:34;;;;;;;5.00;0.30;;;23.60;99.90;;;;;;4933720;29;20027;-72
2022/03/14 07:39:06;;;;;;;3.83;0.60;;;23.50;99.90;;;;;;4933194;29;20090;-72
2022/03/14 07:41:33;;;;;;;4.82;0.55;;;23.40;99.90;;;;;;4925931;29;20123;-72
2022/03/14 07:44:01;;;;;;;3.95;0.20;;;23.40;99.90;;;;;;4929298;29;20028;-73
2022/03/14 07:46:28;;;;;;;4.53;0.40;;;23.30;99.90;;;;;;4920376;29;20055;-73
2022/03/14 07:48:56;;;;;;;1.70;0.30;;;23.30;99.90;;;;;;4933400;29;20509;-71
2022/03/14 07:51:23;;;;;;;1.40;0.20;;;23.40;99.90;;;;;;4934464;29;20067;-73
2022/03/14 07:53:51;;;;;;;3.83;0.32;;;23.30;99.90;;;;;;4931830;29;20178;-72
2022/03/14 07:56:20;;;;;;;2.78;0.43;;;23.30;99.90;;;;;;4933028;29;20414;-72
2022/03/14 07:58:47;;;;;;;4.55;0.50;;;23.20;99.90;;;;;;4923420;29;20028;-72
2022/03/14 08:01:14;;;;;;;2.17;1.05;;;23.20;99.90;;;;;;4925058;29;20036;-71
2022/03/14 08:03:45;;;;;;;1.65;0.30;;;23.10;99.90;;;;;;4925601;29;20040;-72
2022/03/14 08:06:22;;;;;;;5.25;0.93;;;23.10;99.90;;;;;;4932333;29;20031;-74
2022/03/14 08:08:53;;;;;;;1.15;0.60;;;23.00;99.90;;;;;;4931462;28;20103;-71
2022/03/14 08:11:23;;;;;;;6.18;0.52;;;23.00;99.90;;;;;;4919089;29;20055;-73
2022/03/14 08:13:50;;;;;;;1.40;0.45;;;22.90;99.90;;;;;;4925440;29;20067;-73
2022/03/14 08:16:18;;;;;;;5.72;0.40;;;22.90;99.90;;;;;;4921042;28;20378;-74
2022/03/14 08:18:45;;;;;;;1.00;0.52;;;22.90;99.90;;;;;;4925910;29;20046;-73
2022/03/14 08:21:12;;;;;;;3.33;1.08;;;22.70;99.90;;;;;;4929192;29;20027;-73
2022/03/14 08:23:41;;;;;;;5.45;1.13;;;22.70;99.90;;;;;;4929477;29;20060;-73
2022/03/14 08:26:09;;;;;;;4.47;1.10;;;22.60;99.90;;;;;;4932716;29;20031;-72
2022/03/14 08:28:37;;;;;;;2.97;0.77;;;22.50;99.90;;;;;;4914026;29;20039;-73
2022/03/14 08:31:05;;;;;;;3.83;1.13;;;22.40;99.90;;;;;;4923045;29;20031;-72
2022/03/14 08:33:36;;;;;;;10.18;1.27;;;22.30;99.90;;;;;;4929963;29;20046;-73
2022/03/14 08:36:04;;;;;;;3.83;0.73;;;22.20;99.90;;;;;;4932200;29;20565;-72
2022/03/14 08:38:32;;;;;;;2.15;0.68;;;22.00;99.90;;;;;;4931771;29;20110;-72
2022/03/14 08:40:59;;;;;;;4.50;1.05;;;22.00;99.90;;;;;;4933857;29;20501;-72
2022/03/14 08:43:26;;;;;;;5.45;0.70;;;21.90;99.90;;;;;;4933093;29;20094;-71
2022/03/14 08:45:55;;;;;;;3.42;0.52;;;21.70;99.90;;;;;;4931666;28;20035;-71
2022/03/14 08:48:23;;;;;;;6.03;1.50;;;21.70;99.90;;;;;;4929004;29;20110;-72
2022/03/14 08:50:51;;;;;;;4.97;0.93;;;21.60;99.90;;;;;;4932301;29;20531;-72
2022/03/14 08:53:18;;;;;;;1.77;0.80;;;21.50;99.90;;;;;;4931297;29;20380;-73
2022/03/14 08:55:45;;;;;;;4.13;0.60;;;21.40;99.90;;;;;;4933141;29;20482;-72
2022/03/14 08:58:13;;;;;;;4.97;0.60;;;21.30;99.90;;;;;;4918788;29;20427;-75
2022/03/14 09:00:41;;;;;;;2.15;0.63;;;21.30;99.90;;;;;;4931075;29;20035;-73
2022/03/14 09:03:08;;;;;;;3.63;0.50;;;21.20;99.90;;;;;;4928308;29;20135;-72
2022/03/14 09:05:36;;;;;;;1.42;0.50;;;21.20;99.90;;;;;;4924499;28;20036;-73
2022/03/14 09:08:04;;;;;;;3.40;0.98;;;21.10;99.90;;;;;;4927540;29;20111;-74
2022/03/14 09:10:36;;;;;;;5.10;0.47;;;21.10;99.90;;;;;;4920171;29;20553;-71
2022/03/14 09:13:04;;;;;;;3.35;0.38;;;21.00;99.90;;;;;;4930126;29;20114;-73
2022/03/14 09:15:32;;;;;;;2.83;0.70;;;21.00;99.90;;;;;;4928571;29;20070;-72
2022/03/14 09:18:01;;;;;;;3.35;0.52;;;20.90;99.90;;;;;;4930159;29;20030;-71
2022/03/14 09:20:30;;;;;;;1.65;0.40;;;20.90;99.90;;;;;;4944408;28;20814;-71
2022/03/14 09:22:57;;;;;;;2.35;0.45;;;20.80;99.90;;;;;;4931656;29;20063;-72
2022/03/14 09:25:25;;;;;;;1.90;0.80;;;20.80;99.90;;;;;;4922096;29;20039;-71
2022/03/14 09:27:53;;;;;;;1.85;0.30;;;20.80;99.90;;;;;;4930847;29;20043;-72
2022/03/14 09:30:22;;;;;;;2.10;0.47;;;20.70;99.90;;;;;;4926406;28;20043;-71
2022/03/14 09:32:49;;;;;;;1.80;0.43;;;20.70;99.90;;;;;;4927084;29;20063;-73
2022/03/14 09:35:18;;;;;;;3.50;1.35;;;20.70;99.90;;;;;;4921974;29;20051;-72
2022/03/14 09:37:46;;;;;;;2.95;0.50;;;20.70;99.90;;;;;;4925900;29;20028;-70
2022/03/14 09:40:19;;;;;;;2.00;0.43;;;20.70;99.90;;;;;;4929509;29;20032;-70
2022/03/14 09:42:52;;;;;;;3.17;0.40;;;20.70;99.90;;;;;;4931978;28;20059;-71
2022/03/14 09:45:20;;;;;;;2.03;0.40;;;20.60;99.90;;;;;;4929437;29;20039;-72
2022/03/14 09:47:49;;;;;;;2.58;0.88;;;20.60;99.90;;;;;;4930923;29;20091;-72
2022/03/14 09:50:31;;;;;;;2.25;0.40;;;20.60;99.90;;;;;;4932950;29;20127;-71
2022/03/14 09:53:00;;;;;;;1.48;0.45;;;20.60;99.90;;;;;;4919792;29;20062;-71
2022/03/14 09:55:27;;;;;;;1.50;0.30;;;20.50;99.90;;;;;;4929542;29;20036;-72
2022/03/14 09:57:55;;;;;;;1.95;0.88;;;20.50;99.90;;;;;;4931187;29;20473;-71
2022/03/14 10:00:23;;;;;;;4.50;0.85;;;20.40;99.90;;;;;;4929319;28;20634;-71
2022/03/14 10:02:50;;;;;;;2.50;0.88;;;20.40;99.90;;;;;;4932961;29;20529;-71
2022/03/14 10:05:19;;;;;;;1.88;0.47;;;20.30;99.90;;;;;;4933938;28;20087;-73
2022/03/14 10:07:47;;;;;;;3.95;0.43;;;20.30;99.90;;;;;;4935332;29;20031;-72
2022/03/14 10:10:14;;;;;;;3.55;0.63;;;20.20;99.90;;;;;;4927099;29;20024;-73
2022/03/14 10:12:44;;;;;;;4.70;0.57;;;20.20;99.90;;;;;;4922798;29;20543;-71
2022/03/14 10:15:12;;;;;;;2.45;0.30;;;20.20;99.90;;;;;;4928267;29;20030;-72
2022/03/14 10:17:39;;;;;;;1.40;0.30;;;20.20;99.90;;;;;;4931124;29;20386;-71
2022/03/14 10:20:07;;;;;;;6.35;0.65;;;20.20;99.90;;;;;;4929715;29;20016;-73
2022/03/14 10:22:38;;;;;;;3.53;0.30;;;20.10;99.90;;;;;;4920221;29;20083;-71
2022/03/14 10:25:18;;;;;;;3.30;0.40;;;20.10;99.90;;;;;;4934549;29;20383;-73
2022/03/14 10:27:54;;;;;;;4.50;0.63;;;20.10;99.90;;;;;;4934425;29;20039;-73
2022/03/14 10:30:28;;;;;;;1.15;0.50;;;19.90;99.90;;;;;;4928965;29;20036;-73
2022/03/14 10:33:16;;;;;;;3.38;1.02;;;19.90;99.90;;;;;;4933584;29;20036;-74
2022/03/14 10:35:45;;;;;;;2.05;0.38;;;19.80;99.90;;;;;;4933297;29;20036;-74
2022/03/14 10:38:16;;;;;;;1.02;0.40;;;19.80;99.90;;;;;;4936072;29;20034;-74
2022/03/14 10:40:45;;;;;;;1.67;0.47;;;19.80;99.90;;;;;;4936682;28;20054;-73
2022/03/14 10:43:23;;;;;;;3.03;0.55;;;19.80;99.90;;;;;;4936204;29;20042;-74
2022/03/14 10:45:51;;;;;;;3.15;0.40;;;19.80;99.90;;;;;;4931930;29;20102;-73
2022/03/14 10:48:31;;;;;;;4.93;1.42;;;19.70;99.90;;;;;;4934491;29;20038;-75
2022/03/14 10:51:06;;;;;;;3.38;1.65;;;19.70;99.90;;;;;;4925297;29;20128;-76
2022/03/14 10:53:34;;;;;;;1.67;0.80;;;19.70;99.90;;;;;;4930227;29;20020;-75
2022/03/14 10:56:03;;;;;;;1.52;0.88;;;19.70;99.90;;;;;;4922823;29;20127;-74
2022/03/14 10:58:34;;;;;;;6.93;1.63;;;19.70;99.90;;;;;;4934446;29;20055;-74
2022/03/14 11:01:09;;;;;;;4.57;1.13;;;19.70;99.90;;;;;;4926998;29;20059;-74
2022/03/14 11:03:42;;;;;;;4.43;1.25;;;19.70;99.90;;;;;;4928774;29;20498;-73
2022/03/14 11:06:10;;;;;;;5.88;0.80;;;19.70;99.90;;;;;;4930758;29;20043;-74
2022/03/14 11:08:51;;;;;;;4.95;1.40;;;19.60;99.90;;;;;;4930749;29;20082;-75
2022/03/14 11:11:21;;;;;;;4.15;1.05;;;19.60;99.90;;;;;;4934874;29;20031;-73
2022/03/14 11:13:50;;;;;;;2.40;0.70;;;19.50;99.90;;;;;;4929748;29;20078;-74
2022/03/14 11:16:28;;;;;;;2.25;0.90;;;19.50;99.90;;;;;;4933966;29;20118;-73
2022/03/14 11:18:56;;;;;;;3.15;1.10;;;19.40;99.90;;;;;;4932151;29;20090;-74
2022/03/14 11:21:26;;;;;;;5.60;0.95;;;19.40;99.90;;;;;;4933228;29;20304;-75
2022/03/14 11:23:55;;;;;;;3.50;0.60;;;19.30;99.90;;;;;;4932148;29;20074;-74
2022/03/14 11:26:25;;;;;;;5.25;1.50;;;19.20;99.90;;;;;;4922399;29;20500;-72
2022/03/14 11:28:57;;;;;;;2.53;0.70;;;19.20;99.90;;;;;;4931992;29;20028;-71
2022/03/14 11:31:24;;;;;;;3.33;0.70;;;19.20;99.90;;;;;;4920488;29;20028;-70
2022/03/14 11:33:52;;;;;;;1.92;0.70;;;19.20;99.90;;;;;;4925180;29;20059;-72
2022/03/14 11:36:21;;;;;;;3.58;0.70;;;19.10;99.90;;;;;;4933190;29;20024;-71
2022/03/14 11:38:49;;;;;;;3.40;1.00;;;19.10;99.90;;;;;;4933515;29;20151;-72
2022/03/14 11:41:18;;;;;;;3.53;0.85;;;19.10;99.90;;;;;;4932709;29;20047;-74
2022/03/14 11:43:48;;;;;;;8.45;1.65;;;19.10;99.90;;;;;;4928128;29;20036;-71
2022/03/14 11:46:16;;;;;;;6.13;0.82;;;19.00;99.90;;;;;;4924650;29;20692;-75
2022/03/14 11:48:43;;;;;;;2.88;0.80;;;19.00;99.90;;;;;;4920976;29;20027;-74
2022/03/14 11:51:11;;;;;;;2.90;0.52;;;19.00;99.90;;;;;;4918622;29;20499;-75
2022/03/14 11:53:52;;;;;;;1.63;0.82;;;19.00;99.90;;;;;;4929373;29;22841;-72
2022/03/14 11:56:20;;;;;;;3.95;0.60;;;19.00;99.90;;;;;;4929472;29;20059;-73
2022/03/14 11:58:50;;;;;;;3.22;0.90;;;18.90;99.90;;;;;;4928902;29;20031;-75
2022/03/14 12:01:23;;;;;;;3.05;0.50;;;18.90;99.90;;;;;;4921341;29;20028;-72
2022/03/14 12:03:54;;;;;;;4.82;1.00;;;18.90;99.90;;;;;;4927371;29;20399;-74
2022/03/14 12:06:46;;;;;;;2.00;0.60;;;18.90;99.90;;;;;;4935019;29;20127;-74
2022/03/14 12:09:26;;;;;;;2.25;0.70;;;18.80;99.90;;;;;;4928699;29;20110;-72
2022/03/14 12:12:19;;;;;;;6.85;1.52;;;18.80;99.90;;;;;;4928649;29;20138;-73
2022/03/14 12:14:54;;;;;;;3.72;0.65;;;18.80;99.90;;;;;;4924079;29;20031;-74
2022/03/14 12:17:27;;;;;;;1.88;0.90;;;18.80;99.90;;;;;;4926112;29;20035;-75
2022/03/14 12:20:02;;;;;;;4.55;0.70;;;18.80;99.90;;;;;;4933578;29;20390;-74
2022/03/14 12:22:35;;;;;;;3.20;0.85;;;18.70;99.90;;;;;;4930934;29;20032;-74
2022/03/14 12:25:04;;;;;;;2.70;1.17;;;18.70;99.90;;;;;;4931671;29;20042;-74
2022/03/14 12:27:44;;;;;;;1.73;1.42;;;18.70;99.90;;;;;;4932592;29;20040;-75
2022/03/14 12:30:20;;;;;;;4.88;1.27;;;18.70;99.90;;;;;;4928906;29;20489;-75
2022/03/14 12:32:55;;;;;;;;;;;18.60;99.90;;;;;;4928593;29;20138;-72
2022/03/14 12:35:22;;;;;;;2.17;1.17;;;18.60;99.90;;;;;;4929945;29;19966;-74
2022/03/14 12:37:53;;;;;;;4.00;0.60;;;18.70;99.90;;;;;;4932839;29;20050;-74
2022/03/14 12:40:23;;;;;;;1.38;0.70;;;18.70;99.90;;;;;;4931265;29;20095;-74
2022/03/14 12:43:11;;;;;;;2.55;0.50;;;18.70;99.90;;;;;;4929907;29;20075;-74
2022/03/14 12:45:47;;;;;;;2.20;0.65;;;18.80;99.90;;;;;;4925326;29;20030;-72
2022/03/14 12:48:16;;;;;;;4.05;1.63;;;18.80;99.90;;;;;;4933706;28;20034;-74
2022/03/14 12:50:53;;;;;;;6.05;0.65;;;18.90;99.90;;;;;;4931214;29;20031;-73
2022/03/14 12:53:29;;;;;;;3.90;0.90;;;18.90;99.90;;;;;;4924708;29;20123;-72
2022/03/14 12:56:02;;;;;;;2.67;0.98;;;19.00;99.90;;;;;;4922804;29;20434;-74
2022/03/14 12:58:34;;;;;;;3.80;1.20;;;19.00;99.90;;;;;;4926796;29;20103;-75